Latest Weather Observations for Mallacoota

IDV60801

Issued at 9:31 am EDT Sunday 1 February 2015 (issued every 30 minutes, with the page automatically refreshed every 10 minutes)

About weather observations | Map of weather stations | Latest weather observations for VIC | Other Formats
Station Details ID: 084084 Name: MALLACOOTA Lat: -37.60 Lon: 149.73 Height: 22.0 m
Data from the previous 72 hours. | See also: Recent months at Mallacoota
Date/Time
EDT
Temp
°C
App
Temp
°C
Dew
Point
Rel
Hum
%
Delta-T
°C
Wind Press
QNH
hPa
Press
MSL
hPa
Rain
since 9 am
mm
Dir
 
Spd
km/h
Gust
km/h
Spd
kts
Gust
kts
01/09:30am 15.5 14.4 14.4 93 0.6 WNW 13 22 7 12 1010.9 - 0.0
01/09:00am 15.3 14.2 14.2 93 0.6 W 13 20 7 11 1010.8 1010.7 10.4
01/08:30am 15.1 14.3 14.0 93 0.6 W 11 19 6 10 1010.6 - 10.2
01/08:00am 15.1 13.9 14.0 93 0.6 W 13 22 7 12 1010.3 - 10.2
01/07:30am 14.9 14.0 13.8 93 0.6 W 11 19 6 10 1010.0 - 10.2
01/07:00am 14.8 14.3 13.7 93 0.6 W 9 19 5 10 1009.7 - 10.2
01/06:30am 14.8 13.9 13.8 94 0.6 W 11 17 6 9 1009.4 - 10.2
01/06:00am 14.6 14.0 13.6 94 0.6 WSW 9 15 5 8 1009.1 1009.0 10.2
01/05:30am 14.6 14.4 13.6 94 0.6 W 7 11 4 6 1009.0 - 10.2
01/05:00am 14.6 13.3 13.6 94 0.6 WSW 13 28 7 15 1008.8 - 10.2
01/04:30am 14.6 13.7 13.6 94 0.6 W 11 17 6 9 1008.7 - 10.0
01/04:00am 14.6 12.9 13.6 94 0.6 WSW 15 26 8 14 1008.6 - 9.8
01/03:30am 14.8 13.5 13.8 94 0.6 W 13 20 7 11 1008.5 - 9.0
01/03:00am 14.9 14.1 13.9 94 0.6 WSW 11 17 6 9 1008.7 1008.6 8.4
01/02:30am 15.0 14.5 13.9 93 0.6 WSW 9 15 5 8 1008.9 - 7.6
01/02:00am 15.0 14.2 13.9 93 0.6 W 11 19 6 10 1009.0 - 6.6
01/01:30am 15.0 14.9 13.9 93 0.6 W 7 13 4 7 1009.3 - 4.2
01/01:00am 15.1 14.3 14.0 93 0.6 W 11 19 6 10 1009.6 - 3.6
01/12:30am 15.2 14.0 14.1 93 0.6 W 13 22 7 12 1009.5 - 3.4
01/12:00am 15.2 14.4 13.9 92 0.7 W 11 20 6 11 1009.6 1009.5 2.8
 
Date/Time
EDT
Temp
°C
App
Temp
°C
Dew
Point
Rel
Hum
%
Delta-T
°C
Wind Press
QNH
hPa
Press
MSL
hPa
Rain
since 9 am
mm
Dir
 
Spd
km/h
Gust
km/h
Spd
kts
Gust
kts
31/11:30pm 15.2 14.0 13.9 92 0.7 W 13 20 7 11 1009.6 - 2.8
31/11:00pm 15.3 14.4 13.8 91 0.8 WSW 11 17 6 9 1010.0 - 2.6
31/10:30pm 15.4 14.9 13.8 90 0.9 WSW 9 13 5 7 1010.0 - 2.4
31/10:00pm 15.8 14.5 13.6 87 1.2 W 13 24 7 13 1009.8 - 2.0
31/09:30pm 15.9 14.2 13.6 86 1.3 W 15 28 8 15 1009.5 - 2.0
31/09:00pm 16.0 14.3 13.5 85 1.4 W 15 24 8 13 1009.1 1009.0 2.0
31/08:30pm 15.8 14.1 13.5 86 1.3 W 15 28 8 15 1008.8 - 2.0
31/08:00pm 15.7 13.5 13.4 86 1.3 W 17 26 9 14 1008.6 - 2.0
31/07:30pm 15.7 14.1 13.9 89 1.0 W 15 26 8 14 1008.4 - 2.0
31/07:00pm 15.7 14.5 14.1 90 0.9 WSW 13 28 7 15 1008.2 - 2.0
31/06:30pm 15.9 13.9 13.9 88 1.1 WSW 17 26 9 14 1008.0 - 2.0
31/06:00pm 16.1 14.6 14.1 88 1.1 W 15 30 8 16 1007.6 1007.5 2.0
31/05:30pm 16.3 14.6 14.7 90 0.9 WSW 17 28 9 15 1007.4 - 2.0
31/05:00pm 16.1 14.4 14.6 91 0.9 WSW 17 30 9 16 1007.4 - 2.0
31/04:30pm 15.9 14.2 14.6 92 0.7 SW 17 28 9 15 1007.7 - 1.8
31/04:00pm 16.0 14.2 14.5 91 0.9 WSW 17 26 9 14 1007.5 - 1.0
31/03:30pm 15.9 13.7 14.4 91 0.9 WSW 19 28 10 15 1007.5 - 0.8
31/03:00pm 16.1 14.7 14.5 90 0.9 WSW 15 28 8 15 1007.4 1007.3 0.2
31/02:30pm 16.3 14.1 14.3 88 1.1 WSW 19 33 10 18 1007.2 - 0.2
31/02:00pm 16.8 14.6 14.4 86 1.4 WSW 19 33 10 18 1007.1 - 0.2
31/01:30pm 16.4 14.2 14.4 88 1.1 WSW 19 30 10 16 1007.2 - 0.2
31/01:00pm 15.5 13.9 13.9 90 0.9 W 15 26 8 14 1007.3 - 0.2
31/12:30pm 15.4 13.7 13.6 89 1.0 W 15 32 8 17 1007.3 - 0.2
31/12:00pm 16.0 13.7 14.2 89 1.0 W 19 28 10 15 1007.3 1007.2 0.2
31/11:30am 16.1 13.8 14.1 88 1.1 W 19 35 10 19 1007.4 - 0.2
31/11:00am 15.7 14.0 13.7 88 1.1 W 15 24 8 13 1007.4 - 0.2
31/10:30am 15.9 14.0 14.3 90 0.9 W 17 28 9 15 1007.6 - 0.2
31/10:00am 14.7 12.5 13.4 92 0.7 W 17 28 9 15 1007.6 - 0.2
31/09:30am 14.1 11.7 12.8 92 0.7 W 17 33 9 18 1007.6 - 0.2
31/09:00am 13.7 11.6 12.4 92 0.7 W 15 26 8 14 1007.6 1007.5 26.6
31/08:30am 13.6 11.5 12.3 92 0.7 W 15 24 8 13 1007.5 - 26.6
31/08:00am 13.4 10.8 12.1 92 0.7 W 17 33 9 18 1007.3 - 26.2
31/07:30am 13.4 10.4 12.1 92 0.7 WSW 19 33 10 18 1007.1 - 25.8
31/07:00am 13.4 10.8 12.1 92 0.7 WSW 17 28 9 15 1006.7 - 25.2
31/06:30am 13.6 11.1 12.3 92 0.7 WSW 17 28 9 15 1006.4 - 25.0
31/06:00am 13.9 11.5 12.6 92 0.7 W 17 28 9 15 1006.3 1006.2 24.8
31/05:30am 14.1 12.5 12.7 91 0.8 WSW 13 20 7 11 1006.3 - 24.4
31/05:00am 14.5 13.0 13.0 91 0.8 WSW 13 22 7 12 1006.2 - 24.0
31/04:30am 14.5 12.2 13.0 91 0.8 WSW 17 26 9 14 1006.0 - 23.8
31/04:00am 14.4 11.7 13.0 91 0.8 WSW 19 30 10 16 1006.1 - 23.8
31/03:30am 14.4 12.4 12.8 90 0.9 WSW 15 22 8 12 1006.4 - 23.6
31/03:00am 14.8 12.4 12.8 88 1.1 WSW 17 30 9 16 1006.7 1006.6 23.2
31/02:30am 14.9 12.6 12.9 88 1.1 WSW 17 24 9 13 1006.9 - 23.2
31/02:00am 14.7 12.4 13.1 90 0.9 WSW 17 24 9 13 1006.9 - 23.2
31/01:30am 14.7 12.5 13.2 91 0.8 WSW 17 28 9 15 1007.2 - 23.2
31/01:00am 14.8 12.6 13.3 91 0.8 WSW 17 26 9 14 1007.4 - 23.2
31/12:30am 14.7 11.6 13.4 92 0.7 SW 22 41 12 22 1007.7 - 23.0
31/12:00am 14.5 11.8 13.4 93 0.6 WSW 20 33 11 18 1007.8 1007.7 23.0
 
Date/Time
EDT
Temp
°C
App
Temp
°C
Dew
Point
Rel
Hum
%
Delta-T
°C
Wind Press
QNH
hPa
Press
MSL
hPa
Rain
since 9 am
mm
Dir
 
Spd
km/h
Gust
km/h
Spd
kts
Gust
kts
30/11:30pm 14.5 11.0 13.4 93 0.6 SW 24 44 13 24 1007.9 - 23.0
30/11:00pm 14.4 11.3 13.3 93 0.6 SW 22 44 12 24 1008.3 - 22.8
30/10:30pm 14.5 11.4 13.4 93 0.6 SW 22 43 12 23 1008.5 - 22.4
30/10:00pm 14.5 11.4 13.4 93 0.6 SW 22 37 12 20 1008.7 - 21.8
30/09:30pm 14.4 11.3 13.3 93 0.6 SW 22 43 12 23 1008.6 - 20.4
30/09:00pm 14.5 10.6 13.4 93 0.6 SW 26 41 14 22 1008.3 1008.2 18.8
30/08:52pm 14.4 10.1 13.3 93 0.6 SW 28 48 15 26 1008.2 - 18.8
30/08:30pm 14.4 10.5 13.3 93 0.6 SW 26 43 14 23 1008.1 - 17.6
30/08:00pm 14.5 10.6 13.4 93 0.6 SW 26 46 14 25 1007.9 - 16.6
30/07:30pm 14.6 10.4 13.5 93 0.6 SW 28 52 15 28 1007.8 - 16.0
30/07:26pm 14.6 10.4 13.5 93 0.6 SW 28 52 15 28 1007.8 - 15.8
30/07:00pm 14.9 11.5 13.8 93 0.6 SW 24 48 13 26 1007.6 - 14.6
30/06:38pm 15.1 11.0 13.8 92 0.7 SW 28 50 15 27 1007.5 - 13.0
30/06:30pm 15.2 11.5 13.9 92 0.7 SW 26 43 14 23 1007.4 - 12.0
30/06:17pm 15.3 11.3 14.0 92 0.7 SW 28 48 15 26 1007.3 - 11.8
30/06:00pm 15.3 11.9 13.8 91 0.8 SW 24 46 13 25 1007.4 1007.3 11.0
30/05:30pm 15.5 13.0 14.0 91 0.8 SW 20 35 11 19 1007.3 - 10.4
30/05:02pm 15.0 10.5 13.7 92 0.7 SSW 30 54 16 29 1007.4 - 10.2
30/05:00pm 15.3 11.3 14.0 92 0.7 SSW 28 44 15 24 1007.4 - 10.2
30/04:42pm 15.1 11.0 13.8 92 0.7 SSW 28 46 15 25 1007.4 - 9.6
30/04:30pm 15.1 10.7 14.0 93 0.6 SW 30 46 16 25 1007.5 - 9.4
30/04:00pm 15.1 10.6 13.8 92 0.7 SSW 30 50 16 27 1007.7 - 8.6
30/03:34pm 15.5 11.5 14.0 91 0.8 SSW 28 46 15 25 1007.5 - 6.0
30/03:30pm 15.4 10.6 13.9 91 0.8 SSW 32 46 17 25 1007.6 - 6.0
30/03:00pm 16.6 12.2 14.1 85 1.4 SSW 30 50 16 27 1007.6 1007.5 5.0
30/02:33pm 16.6 11.8 14.1 85 1.4 SSW 32 50 17 27 1007.7 - 5.0
30/02:30pm 16.7 11.8 14.2 85 1.4 SSW 33 50 18 27 1007.6 - 5.0
30/02:00pm 16.5 11.1 12.7 78 2.1 SSW 33 54 18 29 1007.7 - 5.0
30/01:30pm 17.7 13.7 14.0 79 2.1 SSW 28 46 15 25 1007.7 - 4.8
30/01:18pm 17.8 13.9 14.5 81 1.9 SSW 28 48 15 26 1007.8 - 4.8
30/01:00pm 17.9 15.3 15.0 83 1.7 SW 22 35 12 19 1007.9 - 4.8
30/12:30pm 16.3 13.5 14.3 88 1.1 SW 22 37 12 20 1008.2 - 4.8
30/12:00pm 16.5 12.4 13.8 84 1.5 SW 28 48 15 26 1008.4 1008.3 4.8
30/11:49am 17.2 13.3 14.5 84 1.6 SSW 28 46 15 25 1008.5 - 4.8
30/11:30am 17.0 13.7 15.0 88 1.2 SSW 26 44 14 24 1008.6 - 4.8
30/11:00am 15.8 12.7 14.5 92 0.7 SW 24 37 13 20 1008.8 - 4.8
30/10:30am 15.0 11.7 13.9 93 0.6 SW 24 39 13 21 1009.1 - 4.0
30/10:00am 14.9 11.5 13.8 93 0.6 SW 24 37 13 20 1009.3 - 3.2
30/09:30am 15.1 11.4 14.0 93 0.6 SW 26 41 14 22 1009.3 - 2.0
30/09:14am 14.8 10.6 13.5 92 0.7 SSW 28 48 15 26 1009.4 - 2.0
30/09:00am 14.9 11.5 13.8 93 0.6 SW 24 35 13 19 1009.3 1009.2 26.2
30/08:32am 14.9 10.8 13.8 93 0.6 SSW 28 56 15 30 1009.6 - 25.8
30/08:30am 14.8 11.0 13.7 93 0.6 SSW 26 56 14 30 1009.6 - 25.8
30/08:00am 14.4 10.1 13.3 93 0.6 SSW 28 44 15 24 1009.6 - 24.6
30/07:48am 13.9 9.4 12.6 92 0.7 SW 28 54 15 29 1009.6 - 24.2
30/07:30am 14.5 11.0 13.4 93 0.6 SW 24 39 13 21 1009.3 - 22.6
30/07:00am 14.1 11.2 13.0 93 0.6 SW 20 41 11 22 1009.4 - 21.2
30/06:30am 14.1 10.1 13.0 93 0.6 SW 26 41 14 22 1009.5 - 19.8
30/06:00am 14.0 11.0 12.7 92 0.7 SW 20 37 11 20 1009.5 1009.4 17.4
30/05:30am 13.7 9.5 12.4 92 0.7 SW 26 41 14 22 1009.6 - 16.8
30/05:00am 13.6 10.5 12.3 92 0.7 SW 20 35 11 19 1009.9 - 16.0
30/04:30am 13.6 9.3 12.2 91 0.8 SW 26 46 14 25 1010.1 - 13.8
30/04:17am 13.4 8.7 12.0 91 0.8 SSW 28 50 15 27 1010.4 - 13.4
30/04:00am 13.6 10.5 12.2 91 0.8 SW 20 33 11 18 1010.3 - 12.6
30/03:42am 13.6 9.0 12.2 91 0.8 SSW 28 48 15 26 1010.7 - 12.6
30/03:30am 13.7 10.6 12.3 91 0.8 SW 20 32 11 17 1010.7 - 11.0
30/03:00am 13.5 9.1 11.7 89 1.0 SW 26 43 14 23 1011.1 1011.0 10.0
30/02:48am 13.9 9.2 11.9 88 1.1 SSW 28 46 15 25 1011.2 - 9.8
30/02:30am 14.1 10.6 12.1 88 1.1 SW 22 39 12 21 1011.2 - 9.6
30/02:00am 14.0 9.0 12.2 89 1.0 SSW 30 48 16 26 1011.6 - 9.0
30/01:44am 14.0 7.2 12.0 88 1.1 SSW 39 57 21 31 1011.8 - 8.2
30/01:30am 13.9 10.8 12.1 89 1.0 SSW 20 48 11 26 1011.7 - 8.0
30/01:00am 13.7 9.3 11.7 88 1.1 SW 26 43 14 23 1011.9 - 6.4
30/12:31am 14.2 9.5 12.1 87 1.1 SSW 28 46 15 25 1012.2 - 5.2
30/12:30am 14.2 9.2 12.1 87 1.1 SSW 30 46 16 25 1012.2 - 5.2
30/12:06am 13.7 8.4 11.4 86 1.2 SW 30 48 16 26 1012.5 - 4.8
30/12:00am 13.9 8.7 11.6 86 1.2 SSW 30 46 16 25 1012.6 1012.5 4.8
 
Date/Time
EDT
Temp
°C
App
Temp
°C
Dew
Point
Rel
Hum
%
Delta-T
°C
Wind Press
QNH
hPa
Press
MSL
hPa
Rain
since 9 am
mm
Dir
 
Spd
km/h
Gust
km/h
Spd
kts
Gust
kts
29/11:48pm 14.4 9.4 12.3 87 1.1 SSW 30 57 16 31 1012.6 - 4.8
29/11:30pm 13.8 11.2 12.0 89 1.0 WSW 17 33 9 18 1012.8 - 4.4
29/11:00pm 14.2 11.0 11.9 86 1.2 SSW 20 33 11 18 1013.1 - 3.8
29/10:30pm 13.8 11.4 11.3 85 1.3 WSW 15 28 8 15 1013.3 - 3.0
29/10:18pm 14.0 10.6 11.2 83 1.5 SW 20 46 11 25 1013.8 - 3.0
29/10:00pm 15.4 8.7 12.3 82 1.7 S 39 67 21 36 1014.0 - 3.0
29/09:55pm 15.5 7.1 11.1 75 2.4 S 46 67 25 36 1013.8 - 2.8
29/09:53pm 15.7 6.2 11.1 74 2.5 S 52 67 28 36 1013.7 - 2.8
29/09:44pm 17.3 12.3 10.9 66 3.4 SSW 28 54 15 29 1013.6 - 2.8
29/09:30pm 17.2 11.5 11.2 68 3.2 SSW 32 44 17 24 1013.6 - 2.8
29/09:06pm 17.2 12.4 11.7 70 3.0 SSW 28 46 15 25 1013.7 - 2.8
29/09:00pm 16.7 11.3 10.8 68 3.2 SSW 30 46 16 25 1013.7 1013.6 2.8
29/08:30pm 17.3 12.0 11.1 67 3.3 S 30 52 16 28 1013.7 - 2.8
29/08:00pm 17.4 12.6 11.7 69 3.1 SSW 28 50 15 27 1013.6 - 2.8
29/07:30pm 17.4 11.9 10.5 64 3.7 SSW 30 50 16 27 1013.7 - 2.8
29/07:12pm 17.5 12.0 10.6 64 3.7 SSW 30 48 16 26 1013.6 - 2.8
29/07:00pm 17.7 12.5 11.7 68 3.3 SSW 30 46 16 25 1013.5 - 2.8
29/06:30pm 17.9 12.7 11.5 66 3.5 S 30 48 16 26 1013.5 - 2.8
29/06:23pm 17.7 12.3 10.8 64 3.7 S 30 48 16 26 1013.5 - 2.8
29/06:00pm 17.9 12.0 11.2 65 3.6 SSW 33 50 18 27 1013.6 1013.5 2.8
29/05:30pm 17.8 12.5 11.1 65 3.6 SSW 30 48 16 26 1013.6 - 2.8
29/05:06pm 17.5 12.2 11.1 66 3.5 S 30 48 16 26 1013.9 - 2.8
29/05:00pm 18.9 14.1 11.7 63 4.0 S 28 44 15 24 1013.8 - 2.8
29/04:30pm 19.0 13.7 11.1 60 4.3 S 30 52 16 28 1013.9 - 2.8
29/04:00pm 19.4 14.8 12.2 63 4.0 S 28 50 15 27 1014.0 - 2.8
29/03:30pm 18.7 13.0 11.8 64 3.8 S 33 54 18 29 1014.2 - 2.8
29/03:07pm 18.7 11.8 12.9 69 3.3 S 41 59 22 32 1014.3 - 2.8
29/03:00pm 17.7 9.1 11.5 67 3.4 S 48 59 26 32 1014.3 1014.2 2.8
29/02:57pm 17.3 12.7 12.2 72 2.8 S 28 59 15 32 1014.3 - 2.8
29/02:30pm 15.8 14.1 13.5 86 1.3 WSW 15 22 8 12 1014.8 - 2.4
29/02:00pm 15.7 12.9 12.6 82 1.7 SW 19 32 10 17 1015.2 - 1.6
29/01:30pm 15.0 12.2 12.7 86 1.3 SW 19 32 10 17 1015.4 - 1.2
29/01:00pm 15.3 12.3 12.4 83 1.6 SW 20 33 11 18 1015.7 - 0.6
29/12:30pm 16.1 13.1 12.7 80 1.9 SW 20 30 11 16 1015.6 - 0.4
29/12:00pm 15.5 12.4 12.3 81 1.7 SW 20 33 11 18 1015.9 1015.8 0.2
29/11:30am 15.6 11.2 11.8 78 2.1 SSW 26 39 14 21 1016.3 - 0.2
29/11:13am 17.8 13.3 12.5 71 2.9 SSW 28 46 15 25 1016.2 - 0.0
29/11:00am 18.4 15.2 11.9 66 3.6 SSW 20 32 11 17 1016.1 - 0.0
29/10:30am 18.7 15.6 12.2 66 3.6 SSW 20 32 11 17 1015.9 - 0.0
29/10:00am 17.9 13.1 11.5 66 3.5 SSW 28 39 15 21 1015.9 - 0.0

Other Formats:

Comma delimited format used in spreadsheet applications
http://www.bom.gov.au/fwo/IDV60801/IDV60801.94935.axf

JavaScript Object Notation format (JSON) in row-major order
http://www.bom.gov.au/fwo/IDV60801/IDV60801.94935.json